< < Back
Terminal Aerodrome Forecast


Current Version              Previous Versions:   1  2  3  4  5  6  7  8  9  

Terminal Aerodrome Forecast

183
FTUS42 KFFC 130131 AAA
TAFMCN
TAF AMD
KMCN 130131Z 1302/1324 30010G18KT P6SM FEW150
     FM130400 32014G22KT P6SM SKC
     FM131800 33012KT P6SM SKC
     FM132300 33009KT P6SM FEW250=



Latest METAR

368
SAUS80 KWBC 131100 RRA
MTRMCN
METAR KMCN 131053Z AUTO 33011G18KT 10SM CLR 03/M04 A3026 RMK AO2 SLP244
T00331044 TSNO


USA.gov is the U.S. government's official web portal to all federal, state and local government web resources and services.